createdAt,value
2022-11-05T00:00:47.309Z,11.29
2022-11-05T00:02:04.176Z,11.26
2022-11-05T00:03:21.049Z,11.27
2022-11-05T00:04:37.941Z,11.16
2022-11-05T00:05:54.750Z,11.21
2022-11-05T00:07:12.105Z,11.21
2022-11-05T00:08:37.796Z,11.22
2022-11-05T00:09:42.145Z,11.19
2022-11-05T00:10:46.610Z,11.22
2022-11-05T00:12:03.399Z,11.26
2022-11-05T00:13:21.014Z,11.30
2022-11-05T00:14:37.886Z,11.31
2022-11-05T00:15:54.695Z,11.32
2022-11-05T00:16:59.102Z,11.36
2022-11-05T00:18:03.576Z,11.33
2022-11-05T00:19:09.096Z,11.36
2022-11-05T00:20:13.799Z,11.37
2022-11-05T00:21:30.420Z,11.38
2022-11-05T00:22:47.202Z,11.38
2022-11-05T00:24:04.040Z,11.39
2022-11-05T00:25:17.456Z,11.40
2022-11-05T00:26:21.817Z,11.40
2022-11-05T00:27:23.583Z,11.40
2022-11-05T00:28:28.444Z,11.39
2022-11-05T00:29:30.208Z,11.32
2022-11-05T00:30:36.056Z,11.36
2022-11-05T00:31:37.885Z,11.38
2022-11-05T00:32:42.304Z,11.34
2022-11-05T00:33:44.085Z,11.34
2022-11-05T00:34:48.493Z,11.33
2022-11-05T00:35:52.901Z,11.35
2022-11-05T00:36:54.703Z,11.33
2022-11-05T00:37:59.121Z,11.33
2022-11-05T00:39:00.899Z,11.26
2022-11-05T00:40:05.980Z,11.27
2022-11-05T00:41:08.153Z,11.16
2022-11-05T00:42:24.941Z,11.16
2022-11-05T00:43:41.835Z,11.16
2022-11-05T00:44:58.647Z,11.16
2022-11-05T00:46:03.109Z,11.11
2022-11-05T00:47:19.804Z,11.03
2022-11-05T00:48:36.706Z,11.04
2022-11-05T00:49:38.500Z,11.08
2022-11-05T00:50:43.023Z,11.07
2022-11-05T00:51:44.852Z,11.02
2022-11-05T00:52:56.037Z,11.00
2022-11-05T00:54:00.397Z,10.99
2022-11-05T00:55:02.178Z,11.03
2022-11-05T00:56:06.901Z,10.99
2022-11-05T00:57:08.817Z,10.97
2022-11-05T00:58:20.452Z,10.95
2022-11-05T00:59:22.461Z,10.94
2022-11-05T01:00:27.788Z,10.94
2022-11-05T01:01:32.274Z,10.97
2022-11-05T01:02:34.365Z,10.96
2022-11-05T01:03:39.504Z,10.94
2022-11-05T01:04:41.305Z,10.93
2022-11-05T01:05:49.878Z,10.88
2022-11-05T01:06:52.095Z,10.88
2022-11-05T01:07:56.806Z,10.90
2022-11-05T01:08:58.835Z,10.94
2022-11-05T01:10:04.092Z,10.91
2022-11-05T01:11:33.480Z,10.89
2022-11-05T01:12:35.724Z,10.91
2022-11-05T01:13:40.571Z,10.91
2022-11-05T01:14:42.702Z,10.87
2022-11-05T01:15:47.784Z,10.89
2022-11-05T01:16:52.499Z,10.88
2022-11-05T01:17:56.942Z,10.90
2022-11-05T01:18:58.756Z,10.90
2022-11-05T01:20:03.325Z,10.89
2022-11-05T01:21:16.998Z,10.89
2022-11-05T01:22:18.805Z,10.81
2022-11-05T01:23:24.112Z,10.90
2022-11-05T01:24:25.888Z,10.88
2022-11-05T01:25:30.235Z,10.90
2022-11-05T01:26:32.087Z,10.91
2022-11-05T01:27:36.456Z,10.90
2022-11-05T01:28:38.306Z,10.91
2022-11-05T01:29:42.831Z,10.92
2022-11-05T01:30:47.205Z,10.90
2022-11-05T01:31:48.986Z,10.92
2022-11-05T01:32:53.381Z,10.89
2022-11-05T01:33:55.163Z,10.87
2022-11-05T01:34:59.543Z,10.89
2022-11-05T01:36:01.341Z,10.89
2022-11-05T01:37:05.766Z,10.91
2022-11-05T01:38:10.149Z,10.88
2022-11-05T01:39:11.976Z,10.89
2022-11-05T01:40:18.498Z,10.86
2022-11-05T01:41:20.334Z,10.85
2022-11-05T01:42:25.515Z,10.88
2022-11-05T01:43:27.363Z,10.88
2022-11-05T01:44:50.652Z,10.88
2022-11-05T01:45:56.241Z,10.90
2022-11-05T01:46:58.065Z,10.92
2022-11-05T01:48:04.372Z,10.94
2022-11-05T01:49:11.220Z,10.96
2022-11-05T01:50:24.566Z,10.98
2022-11-05T01:51:29.045Z,11.00
2022-11-05T01:52:31.322Z,11.01
2022-11-05T01:53:39.931Z,11.02
2022-11-05T01:54:41.794Z,11.04
2022-11-05T01:55:47.457Z,11.06
2022-11-05T01:56:50.657Z,11.09
2022-11-05T01:57:55.447Z,11.08
2022-11-05T01:59:02.038Z,11.11
2022-11-05T02:00:04.225Z,11.13
2022-11-05T02:01:17.854Z,11.16
2022-11-05T02:02:19.855Z,11.16
2022-11-05T02:03:24.400Z,11.18
2022-11-05T02:04:37.237Z,11.21
2022-11-05T02:05:42.617Z,11.22
2022-11-05T02:06:46.664Z,11.22
2022-11-05T02:07:51.142Z,11.19
2022-11-05T02:08:55.358Z,11.19
2022-11-05T02:10:13.808Z,11.19
2022-11-05T02:11:17.350Z,11.18
2022-11-05T02:12:21.833Z,11.17
2022-11-05T02:13:23.662Z,11.19
2022-11-05T02:14:28.085Z,11.22
2022-11-05T02:15:41.957Z,11.21
2022-11-05T02:17:04.056Z,11.21
2022-11-05T02:18:14.133Z,11.21
2022-11-05T02:19:21.382Z,11.22
2022-11-05T02:20:39.035Z,11.18
2022-11-05T02:21:48.313Z,11.18
2022-11-05T02:23:05.008Z,11.19
2022-11-05T02:24:17.861Z,11.19
2022-11-05T02:25:28.126Z,11.18
2022-11-05T02:26:29.852Z,11.21
2022-11-05T02:27:46.412Z,11.19
2022-11-05T02:29:00.383Z,11.17
2022-11-05T02:30:07.822Z,11.15
2022-11-05T02:31:24.835Z,11.11
2022-11-05T02:32:29.229Z,11.15
2022-11-05T02:33:40.108Z,11.15
2022-11-05T02:34:58.752Z,11.17
2022-11-05T02:36:00.564Z,11.17
2022-11-05T02:37:16.525Z,11.17
2022-11-05T02:38:21.972Z,11.17
2022-11-05T02:39:38.118Z,11.15
2022-11-05T02:40:49.768Z,11.15
2022-11-05T02:41:54.101Z,11.14
2022-11-05T02:43:07.916Z,11.13
2022-11-05T02:44:24.821Z,11.13
2022-11-05T02:45:33.797Z,11.14
2022-11-05T02:46:53.457Z,11.13
2022-11-05T02:48:14.713Z,11.14
2022-11-05T02:49:25.486Z,11.14
2022-11-05T02:50:30.900Z,11.10
2022-11-05T02:51:40.774Z,11.13
2022-11-05T02:52:54.104Z,11.13
2022-11-05T02:54:03.584Z,11.12
2022-11-05T02:55:10.833Z,11.12
2022-11-05T02:56:18.973Z,11.12
2022-11-05T02:57:23.629Z,11.12
2022-11-05T02:58:31.477Z,11.08
2022-11-05T02:59:33.303Z,11.10
2022-11-05T03:00:37.899Z,11.10
2022-11-05T03:01:42.447Z,11.11
2022-11-05T03:02:44.471Z,11.10
2022-11-05T03:03:50.295Z,11.10
2022-11-05T03:04:52.053Z,11.10
2022-11-05T03:06:06.200Z,11.10
2022-11-05T03:07:10.534Z,11.08
2022-11-05T03:08:15.468Z,11.10
2022-11-05T03:09:22.908Z,11.10
2022-11-05T03:10:35.098Z,11.10
2022-11-05T03:11:58.636Z,11.09
2022-11-05T03:13:15.796Z,11.07
2022-11-05T03:14:36.299Z,11.06
2022-11-05T03:15:49.702Z,11.05
2022-11-05T03:16:59.978Z,11.04
2022-11-05T03:18:30.342Z,11.04
2022-11-05T03:19:39.079Z,11.04
2022-11-05T03:20:40.809Z,11.02
2022-11-05T03:21:48.098Z,11.03
2022-11-05T03:22:52.540Z,11.04
2022-11-05T03:23:59.208Z,11.04
2022-11-05T03:25:02.978Z,11.03
2022-11-05T03:26:13.213Z,11.02
2022-11-05T03:27:19.761Z,11.04
2022-11-05T03:28:25.013Z,11.05
2022-11-05T03:29:27.625Z,11.04
2022-11-05T03:30:32.110Z,11.05
2022-11-05T03:31:34.094Z,11.04
2022-11-05T03:32:39.183Z,11.03
2022-11-05T03:33:41.669Z,11.02
2022-11-05T03:34:47.468Z,11.02
2022-11-05T03:35:50.990Z,11.02
2022-11-05T03:36:56.067Z,11.01
2022-11-05T03:38:02.425Z,11.01
2022-11-05T03:39:08.217Z,11.01
2022-11-05T03:40:10.271Z,11.01
2022-11-05T03:41:14.884Z,11.01
2022-11-05T03:42:17.985Z,11.01
2022-11-05T03:43:22.384Z,11.01
2022-11-05T03:44:25.942Z,11.00
2022-11-05T03:45:38.349Z,11.02
2022-11-05T03:46:44.365Z,11.03
2022-11-05T03:47:48.997Z,11.05
2022-11-05T03:48:53.022Z,11.05
2022-11-05T03:49:58.820Z,11.05
2022-11-05T03:51:03.593Z,11.05
2022-11-05T03:52:10.144Z,11.04
2022-11-05T03:53:16.256Z,11.06
2022-11-05T03:54:20.705Z,11.07
2022-11-05T03:55:23.382Z,11.04
2022-11-05T03:56:36.284Z,11.06
2022-11-05T03:57:38.711Z,11.05
2022-11-05T03:58:45.955Z,11.04
2022-11-05T03:59:51.916Z,11.04
2022-11-05T04:00:53.824Z,11.04
2022-11-05T04:01:58.372Z,11.04
2022-11-05T04:03:00.354Z,11.05
2022-11-05T04:04:04.827Z,11.04
2022-11-05T04:05:06.679Z,11.04
2022-11-05T04:06:23.670Z,11.03
2022-11-05T04:07:40.465Z,11.01
2022-11-05T04:08:57.293Z,11.01
2022-11-05T04:10:14.528Z,11.01
2022-11-05T04:11:31.317Z,10.93
2022-11-05T04:12:47.906Z,10.96
2022-11-05T04:13:52.404Z,10.96
2022-11-05T04:14:54.174Z,10.94
2022-11-05T04:16:11.332Z,10.89
2022-11-05T04:17:15.755Z,10.89
2022-11-05T04:18:17.503Z,10.88
2022-11-05T04:19:40.673Z,10.90
2022-11-05T04:20:57.545Z,10.88
2022-11-05T04:22:23.214Z,10.89
2022-11-05T04:23:40.037Z,10.92
2022-11-05T04:24:44.379Z,10.92
2022-11-05T04:25:48.775Z,10.93
2022-11-05T04:26:50.623Z,10.91
2022-11-05T04:27:55.112Z,10.91
2022-11-05T04:29:11.901Z,10.93
2022-11-05T04:30:20.663Z,10.91
2022-11-05T04:31:22.527Z,10.89
2022-11-05T04:32:26.944Z,10.91
2022-11-05T04:33:28.765Z,10.91
2022-11-05T04:34:33.225Z,10.91
2022-11-05T04:35:35.008Z,10.92
2022-11-05T04:36:39.392Z,10.93
2022-11-05T04:37:41.240Z,10.93
2022-11-05T04:38:45.643Z,10.93
2022-11-05T04:39:47.414Z,10.94
2022-11-05T04:40:51.783Z,10.95
2022-11-05T04:41:53.685Z,10.94
2022-11-05T04:42:58.620Z,10.95
2022-11-05T04:44:00.452Z,10.96
2022-11-05T04:45:04.817Z,10.96
2022-11-05T04:46:06.637Z,10.96
2022-11-05T04:47:11.017Z,10.94
2022-11-05T04:48:12.895Z,10.94
2022-11-05T04:49:17.313Z,10.94
2022-11-05T04:50:19.075Z,10.93
2022-11-05T04:51:23.450Z,10.91
2022-11-05T04:52:25.226Z,10.89
2022-11-05T04:53:29.637Z,10.87
2022-11-05T04:54:31.573Z,10.84
2022-11-05T04:55:35.984Z,10.81
2022-11-05T04:56:37.774Z,10.77
2022-11-05T04:57:42.259Z,10.77
2022-11-05T04:58:44.344Z,10.74
2022-11-05T04:59:52.061Z,10.68
2022-11-05T05:00:53.976Z,10.62
2022-11-05T05:01:58.527Z,10.63
2022-11-05T05:03:03.149Z,10.64
2022-11-05T05:04:04.978Z,10.64
2022-11-05T05:05:09.481Z,10.62
2022-11-05T05:06:11.269Z,10.59
2022-11-05T05:07:15.723Z,10.58
2022-11-05T05:08:17.547Z,10.60
2022-11-05T05:09:21.934Z,10.58
2022-11-05T05:10:23.729Z,10.63
2022-11-05T05:11:28.097Z,10.62
2022-11-05T05:12:29.872Z,10.61
2022-11-05T05:13:34.324Z,10.62
2022-11-05T05:14:36.193Z,10.64
2022-11-05T05:15:40.576Z,10.64
2022-11-05T05:16:42.335Z,10.62
2022-11-05T05:17:46.774Z,10.64
2022-11-05T05:18:48.830Z,10.62
2022-11-05T05:20:05.669Z,10.57
2022-11-05T05:21:23.585Z,10.63
2022-11-05T05:22:28.017Z,10.62
2022-11-05T05:23:29.804Z,10.61
2022-11-05T05:24:34.186Z,10.59
2022-11-05T05:25:35.971Z,10.61
2022-11-05T05:26:40.882Z,10.56
2022-11-05T05:27:42.625Z,10.60
2022-11-05T05:28:46.980Z,10.59
2022-11-05T05:29:48.926Z,10.59
2022-11-05T05:30:58.541Z,10.57
2022-11-05T05:32:00.527Z,10.53
2022-11-05T05:33:06.040Z,10.53
2022-11-05T05:34:08.131Z,10.53
2022-11-05T05:35:12.802Z,10.53
2022-11-05T05:36:14.951Z,10.49
2022-11-05T05:37:19.397Z,10.48
2022-11-05T05:38:21.215Z,10.46
2022-11-05T05:39:27.013Z,10.46
2022-11-05T05:40:28.766Z,10.42
2022-11-05T05:41:33.131Z,10.40
2022-11-05T05:42:41.739Z,10.39
2022-11-05T05:43:47.581Z,10.37
2022-11-05T05:44:49.353Z,10.36
2022-11-05T05:45:53.840Z,10.35
2022-11-05T05:46:55.619Z,10.29
2022-11-05T05:48:00.493Z,10.29
2022-11-05T05:49:04.517Z,10.27
2022-11-05T05:50:12.321Z,10.27
2022-11-05T05:51:14.064Z,10.28
2022-11-05T05:52:18.408Z,10.27
2022-11-05T05:53:20.255Z,10.28
2022-11-05T05:54:29.278Z,10.31
2022-11-05T05:55:34.063Z,10.29
2022-11-05T05:56:38.509Z,10.28
2022-11-05T05:57:40.907Z,10.27
2022-11-05T05:58:45.639Z,10.26
2022-11-05T05:59:47.411Z,10.28
2022-11-05T06:00:51.778Z,10.26
2022-11-05T06:01:53.696Z,10.28
2022-11-05T06:02:58.638Z,10.28
2022-11-05T06:04:00.449Z,10.31
2022-11-05T06:05:04.866Z,10.31
2022-11-05T06:06:07.591Z,10.35
2022-11-05T06:07:12.023Z,10.36
2022-11-05T06:08:13.833Z,10.37
2022-11-05T06:09:18.477Z,10.40
2022-11-05T06:10:20.287Z,10.43
2022-11-05T06:11:25.500Z,10.42
2022-11-05T06:12:29.303Z,10.43
2022-11-05T06:13:33.817Z,10.44
2022-11-05T06:14:35.626Z,10.41
2022-11-05T06:15:39.989Z,10.43
2022-11-05T06:16:41.769Z,10.43
2022-11-05T06:17:46.868Z,10.40
2022-11-05T06:18:48.657Z,10.41
2022-11-05T06:19:53.018Z,10.42
2022-11-05T06:20:55.978Z,10.40
2022-11-05T06:22:00.334Z,10.40
2022-11-05T06:23:02.617Z,10.41
2022-11-05T06:24:07.148Z,10.41
2022-11-05T06:25:09.267Z,10.42
2022-11-05T06:26:14.543Z,10.39
2022-11-05T06:27:16.286Z,10.39
2022-11-05T06:28:20.661Z,10.41
2022-11-05T06:29:22.488Z,10.43
2022-11-05T06:30:26.947Z,10.41
2022-11-05T06:31:28.778Z,10.42
2022-11-05T06:32:33.428Z,10.43
2022-11-05T06:33:35.174Z,10.39
2022-11-05T06:34:39.645Z,10.44
2022-11-05T06:35:44.031Z,10.44
2022-11-05T06:36:48.443Z,10.47
2022-11-05T06:37:50.200Z,10.51
2022-11-05T06:38:54.659Z,10.53
2022-11-05T06:39:57.317Z,10.57
2022-11-05T06:41:07.252Z,10.59
2022-11-05T06:42:18.369Z,10.65
2022-11-05T06:43:23.243Z,10.71
2022-11-05T06:44:25.142Z,10.75
2022-11-05T06:45:29.568Z,10.77
2022-11-05T06:46:31.861Z,10.81
2022-11-05T06:47:36.218Z,10.85
2022-11-05T06:48:38.198Z,10.87
2022-11-05T06:49:42.595Z,10.87
2022-11-05T06:50:45.262Z,10.87
2022-11-05T06:51:49.684Z,10.88
2022-11-05T06:52:58.065Z,10.88
2022-11-05T06:54:03.185Z,10.88
2022-11-05T06:55:06.094Z,10.89
2022-11-05T06:56:10.806Z,10.90
2022-11-05T06:57:12.820Z,10.89
2022-11-05T06:58:17.829Z,10.85
2022-11-05T06:59:22.249Z,10.86
2022-11-05T07:00:24.274Z,10.81
2022-11-05T07:01:28.884Z,10.83
2022-11-05T07:02:30.880Z,10.86
2022-11-05T07:03:35.298Z,10.87
2022-11-05T07:04:37.151Z,10.92
2022-11-05T07:05:42.218Z,10.96
2022-11-05T07:06:44.105Z,10.99
2022-11-05T07:07:48.621Z,11.05
2022-11-05T07:08:50.396Z,11.09
2022-11-05T07:09:55.304Z,11.10
2022-11-05T07:10:57.123Z,11.16
2022-11-05T07:12:01.528Z,11.19
2022-11-05T07:13:07.785Z,11.26
2022-11-05T07:14:13.016Z,11.31
2022-11-05T07:15:14.854Z,11.38
2022-11-05T07:16:19.220Z,11.47
2022-11-05T07:17:20.989Z,11.56
2022-11-05T07:18:25.494Z,11.65
2022-11-05T07:19:27.277Z,11.75
2022-11-05T07:20:34.294Z,11.84
2022-11-05T07:21:36.353Z,11.95
2022-11-05T07:22:40.872Z,12.01
2022-11-05T07:23:45.352Z,12.08
2022-11-05T07:24:48.182Z,12.14
2022-11-05T07:25:52.598Z,12.19
2022-11-05T07:26:55.325Z,12.19
2022-11-05T07:27:59.766Z,12.24
2022-11-05T07:29:01.688Z,12.27
2022-11-05T07:30:06.416Z,12.31
2022-11-05T07:31:10.920Z,12.30
2022-11-05T07:32:12.764Z,12.32
2022-11-05T07:33:17.298Z,12.36
2022-11-05T07:34:19.100Z,12.39
2022-11-05T07:35:23.562Z,12.41
2022-11-05T07:36:25.651Z,12.42
2022-11-05T07:37:30.131Z,12.44
2022-11-05T07:38:34.565Z,12.45
2022-11-05T07:39:36.596Z,12.40
2022-11-05T07:40:41.029Z,12.41
2022-11-05T07:41:42.828Z,12.40
2022-11-05T07:42:48.286Z,12.38
2022-11-05T07:43:50.167Z,12.36
2022-11-05T07:44:54.626Z,12.35
2022-11-05T07:45:59.537Z,12.36
2022-11-05T07:47:01.341Z,12.34
2022-11-05T07:48:06.944Z,12.34
2022-11-05T07:49:08.925Z,12.32
2022-11-05T07:50:13.370Z,12.31
2022-11-05T07:51:15.232Z,12.31
2022-11-05T07:52:19.616Z,12.27
2022-11-05T07:53:21.456Z,12.25
2022-11-05T07:54:26.878Z,12.26
2022-11-05T07:55:28.659Z,12.26
2022-11-05T07:56:33.056Z,12.24
2022-11-05T07:57:45.231Z,12.22
2022-11-05T07:58:49.762Z,12.20
2022-11-05T07:59:51.574Z,12.19
2022-11-05T08:00:56.485Z,12.18
2022-11-05T08:01:58.624Z,12.16
2022-11-05T08:03:07.645Z,12.14
2022-11-05T08:04:10.172Z,12.11
2022-11-05T08:05:15.001Z,12.08
2022-11-05T08:06:16.803Z,12.05
2022-11-05T08:07:21.210Z,12.03
2022-11-05T08:08:25.623Z,12.01
2022-11-05T08:09:27.488Z,11.99
2022-11-05T08:10:31.926Z,11.99
2022-11-05T08:11:35.196Z,12.01
2022-11-05T08:12:39.557Z,12.02
2022-11-05T08:13:42.898Z,12.02
2022-11-05T08:14:47.262Z,12.06
2022-11-05T08:15:49.079Z,12.08
2022-11-05T08:16:53.609Z,12.12
2022-11-05T08:18:16.685Z,12.16
2022-11-05T08:19:18.683Z,12.24
2022-11-05T08:20:23.183Z,12.29
2022-11-05T08:21:27.595Z,12.33
2022-11-05T08:22:32.012Z,12.38
2022-11-05T08:23:33.858Z,12.40
2022-11-05T08:24:38.253Z,12.42
2022-11-05T08:25:40.136Z,12.47
2022-11-05T08:26:44.561Z,12.52
2022-11-05T08:27:46.335Z,12.58
2022-11-05T08:28:50.694Z,12.65
2022-11-05T08:29:52.528Z,12.71
2022-11-05T08:30:57.981Z,12.78
2022-11-05T08:31:59.763Z,12.83
2022-11-05T08:33:05.522Z,12.88
2022-11-05T08:34:09.901Z,12.91
2022-11-05T08:35:11.753Z,12.94
2022-11-05T08:36:16.314Z,12.98
2022-11-05T08:37:18.572Z,12.97
2022-11-05T08:38:22.955Z,12.98
2022-11-05T08:39:24.807Z,12.99
2022-11-05T08:40:29.365Z,12.98
2022-11-05T08:41:33.768Z,12.98
2022-11-05T08:42:35.674Z,12.97
2022-11-05T08:43:40.045Z,12.96
2022-11-05T08:44:41.840Z,12.94
2022-11-05T08:45:46.343Z,12.92
2022-11-05T08:46:50.805Z,12.92
2022-11-05T08:47:58.407Z,12.88
2022-11-05T08:49:02.814Z,12.87
2022-11-05T08:50:04.711Z,12.85
2022-11-05T08:51:09.140Z,12.82
2022-11-05T08:52:10.933Z,12.78
2022-11-05T08:53:15.719Z,12.74
2022-11-05T08:54:17.726Z,12.72
2022-11-05T08:55:22.115Z,12.71
2022-11-05T08:56:23.986Z,12.70
2022-11-05T08:57:28.423Z,12.70
2022-11-05T08:58:30.230Z,12.69
2022-11-05T08:59:36.404Z,12.70
2022-11-05T09:00:38.431Z,12.70
2022-11-05T09:01:42.915Z,12.70
2022-11-05T09:02:44.839Z,12.69
2022-11-05T09:03:49.356Z,12.69
2022-11-05T09:04:51.147Z,12.69
2022-11-05T09:05:55.516Z,12.70
2022-11-05T09:07:00.004Z,12.72
2022-11-05T09:08:01.838Z,12.74
2022-11-05T09:09:06.271Z,12.76
2022-11-05T09:10:08.195Z,12.79
2022-11-05T09:11:12.547Z,12.84
2022-11-05T09:12:14.459Z,12.89
2022-11-05T09:13:20.332Z,12.93
2022-11-05T09:14:22.587Z,12.98
2022-11-05T09:15:27.212Z,13.03
2022-11-05T09:16:34.340Z,13.03
2022-11-05T09:17:36.736Z,13.14
2022-11-05T09:18:42.463Z,13.16
2022-11-05T09:19:44.251Z,13.25
2022-11-05T09:20:48.767Z,13.40
2022-11-05T09:21:50.596Z,13.48
2022-11-05T09:22:54.997Z,13.55
2022-11-05T09:23:59.472Z,13.62
2022-11-05T09:25:01.277Z,13.71
2022-11-05T09:26:05.721Z,13.78
2022-11-05T09:27:11.973Z,13.84
2022-11-05T09:28:16.780Z,13.93
2022-11-05T09:29:21.938Z,13.97
2022-11-05T09:30:23.747Z,14.02
2022-11-05T09:31:28.164Z,14.03
2022-11-05T09:32:31.130Z,14.04
2022-11-05T09:33:35.511Z,14.04
2022-11-05T09:34:39.935Z,14.02
2022-11-05T09:35:41.801Z,13.99
2022-11-05T09:36:46.256Z,13.98
2022-11-05T09:37:48.024Z,13.97
2022-11-05T09:38:52.445Z,13.95
2022-11-05T09:39:54.478Z,13.93
2022-11-05T09:41:00.985Z,13.91
2022-11-05T09:42:04.170Z,13.85
2022-11-05T09:43:08.700Z,13.81
2022-11-05T09:44:16.899Z,13.78
2022-11-05T09:45:19.540Z,13.73
2022-11-05T09:46:25.573Z,13.70
2022-11-05T09:47:32.489Z,13.69
2022-11-05T09:48:37.165Z,13.68
2022-11-05T09:49:40.073Z,13.67
2022-11-05T09:50:47.964Z,13.67
2022-11-05T09:51:49.741Z,13.66
2022-11-05T09:52:54.599Z,13.66
2022-11-05T09:53:59.581Z,13.66
2022-11-05T09:55:03.736Z,13.66
2022-11-05T09:56:08.652Z,13.64
2022-11-05T09:57:12.174Z,13.62
2022-11-05T09:58:38.332Z,13.59
2022-11-05T09:59:47.597Z,13.55
2022-11-05T10:00:52.387Z,13.51
2022-11-05T10:02:26.346Z,13.46
2022-11-05T10:03:31.896Z,13.39
2022-11-05T10:04:36.382Z,13.33
2022-11-05T10:05:40.854Z,13.28
2022-11-05T10:06:46.228Z,13.23
2022-11-05T10:07:52.010Z,13.17
2022-11-05T10:09:16.681Z,13.13
2022-11-05T10:10:25.653Z,13.09
2022-11-05T10:11:35.105Z,13.06
2022-11-05T10:12:40.676Z,13.05
2022-11-05T10:13:49.077Z,13.03
2022-11-05T10:14:54.977Z,13.02
2022-11-05T10:15:59.699Z,13.00
2022-11-05T10:17:06.138Z,12.99
2022-11-05T10:18:22.565Z,12.98
2022-11-05T10:19:27.784Z,12.98
2022-11-05T10:20:34.865Z,12.96
2022-11-05T10:22:05.088Z,12.96
2022-11-05T10:23:17.497Z,12.96
2022-11-05T10:24:19.842Z,12.92
2022-11-05T10:25:32.610Z,12.97
2022-11-05T10:26:34.459Z,13.01
2022-11-05T10:27:39.512Z,13.03
2022-11-05T10:28:44.508Z,13.08
2022-11-05T10:29:46.569Z,13.09
2022-11-05T10:30:51.856Z,13.10
2022-11-05T10:31:53.832Z,13.12
2022-11-05T10:32:59.680Z,13.13
2022-11-05T10:34:04.312Z,13.13
2022-11-05T10:35:07.207Z,13.15
2022-11-05T10:36:25.974Z,13.17
2022-11-05T10:37:30.663Z,13.17
2022-11-05T10:38:32.766Z,13.18
2022-11-05T10:39:37.228Z,13.18
2022-11-05T10:40:56.014Z,13.19
2022-11-05T10:41:57.855Z,13.20
2022-11-05T10:43:07.286Z,13.20
2022-11-05T10:44:18.511Z,13.20
2022-11-05T10:45:32.988Z,13.18
2022-11-05T10:46:37.909Z,13.21
2022-11-05T10:47:55.338Z,13.21
2022-11-05T10:48:57.098Z,13.22
2022-11-05T10:50:02.501Z,13.22
2022-11-05T10:51:07.404Z,13.22
2022-11-05T10:52:18.881Z,13.24
2022-11-05T10:53:25.329Z,13.27
2022-11-05T10:54:30.686Z,13.32
2022-11-05T10:55:35.467Z,13.31
2022-11-05T10:56:38.529Z,13.35
2022-11-05T10:57:43.378Z,13.38
2022-11-05T10:58:56.311Z,13.41
2022-11-05T11:00:16.448Z,13.43
2022-11-05T11:01:21.746Z,13.48
2022-11-05T11:02:25.992Z,13.49
2022-11-05T11:03:33.041Z,13.52
2022-11-05T11:04:38.206Z,13.53
2022-11-05T11:05:40.168Z,13.54
2022-11-05T11:06:51.161Z,13.56
2022-11-05T11:07:57.305Z,13.55
2022-11-05T11:09:02.944Z,13.56
2022-11-05T11:10:04.963Z,13.56
2022-11-05T11:11:11.006Z,13.51
2022-11-05T11:12:17.057Z,13.49
2022-11-05T11:13:23.584Z,13.46
2022-11-05T11:14:28.049Z,13.43
2022-11-05T11:15:32.695Z,13.39
2022-11-05T11:16:41.569Z,13.36
2022-11-05T11:17:43.357Z,13.31
2022-11-05T11:18:47.780Z,13.28
2022-11-05T11:19:49.562Z,13.26
2022-11-05T11:20:53.969Z,13.22
2022-11-05T11:22:04.975Z,13.20
2022-11-05T11:23:19.211Z,13.18
2022-11-05T11:24:23.226Z,13.14
2022-11-05T11:25:28.176Z,13.13
2022-11-05T11:26:34.290Z,13.13
2022-11-05T11:27:36.085Z,13.10
2022-11-05T11:28:41.362Z,13.08
2022-11-05T11:29:48.186Z,13.06
2022-11-05T11:30:55.555Z,13.04
2022-11-05T11:31:57.614Z,13.02
2022-11-05T11:33:06.661Z,12.99
2022-11-05T11:34:34.305Z,12.97
2022-11-05T11:35:39.540Z,12.94
2022-11-05T11:36:51.925Z,12.92
2022-11-05T11:37:54.372Z,12.91
2022-11-05T11:39:02.299Z,12.91
2022-11-05T11:40:13.294Z,12.88
2022-11-05T11:41:17.679Z,12.88
2022-11-05T11:42:23.946Z,12.87
2022-11-05T11:43:32.208Z,12.85
2022-11-05T11:44:35.230Z,12.84
2022-11-05T11:45:40.655Z,12.81
2022-11-05T11:46:42.652Z,12.81
2022-11-05T11:47:47.750Z,12.81
2022-11-05T11:48:49.774Z,12.77
2022-11-05T11:49:55.531Z,12.75
2022-11-05T11:50:58.117Z,12.75
2022-11-05T11:52:03.842Z,12.72
2022-11-05T11:53:21.060Z,12.72
2022-11-05T11:54:29.020Z,12.71
2022-11-05T11:55:31.059Z,12.70
2022-11-05T11:56:48.605Z,12.69
2022-11-05T11:57:54.268Z,12.67
2022-11-05T11:59:04.568Z,12.67
2022-11-05T12:00:09.848Z,12.65
2022-11-05T12:01:20.915Z,12.65
2022-11-05T12:02:41.196Z,12.62
2022-11-05T12:03:47.878Z,12.62
2022-11-05T12:04:55.488Z,12.60
2022-11-05T12:06:08.861Z,12.58
2022-11-05T12:07:13.809Z,12.58
2022-11-05T12:08:42.873Z,12.58
2022-11-05T12:10:02.570Z,12.57
2022-11-05T12:11:19.360Z,12.60
2022-11-05T12:12:27.252Z,12.61
2022-11-05T12:13:36.051Z,12.62
2022-11-05T12:14:52.336Z,12.62
2022-11-05T12:15:58.358Z,12.62
2022-11-05T12:17:07.384Z,12.60
2022-11-05T12:18:30.598Z,12.59
2022-11-05T12:19:40.151Z,12.59
2022-11-05T12:20:48.460Z,12.60
2022-11-05T12:21:57.556Z,12.59
2022-11-05T12:23:05.430Z,12.58
2022-11-05T12:24:29.510Z,12.57
2022-11-05T12:25:34.166Z,12.57
2022-11-05T12:26:47.680Z,12.57
2022-11-05T12:28:00.714Z,12.58
2022-11-05T12:29:18.898Z,12.58
2022-11-05T12:30:23.961Z,12.56
2022-11-05T12:31:47.200Z,12.54
2022-11-05T12:32:57.507Z,12.52
2022-11-05T12:34:14.147Z,12.52
2022-11-05T12:35:19.036Z,12.49
2022-11-05T12:36:43.704Z,12.41
2022-11-05T12:38:00.803Z,12.42
2022-11-05T12:39:12.993Z,12.39
2022-11-05T12:40:33.980Z,12.39
2022-11-05T12:41:56.873Z,12.40
2022-11-05T12:43:11.557Z,12.42
2022-11-05T12:44:23.619Z,12.41
2022-11-05T12:45:46.456Z,12.40
2022-11-05T12:46:53.892Z,12.41
2022-11-05T12:48:02.611Z,12.41
2022-11-05T12:49:19.980Z,12.42
2022-11-05T12:50:30.640Z,12.42
2022-11-05T12:52:04.301Z,12.42
2022-11-05T12:53:14.819Z,12.38
2022-11-05T12:54:22.409Z,12.34
2022-11-05T12:55:27.407Z,12.33
2022-11-05T12:56:32.694Z,12.34
2022-11-05T12:57:39.238Z,12.32
2022-11-05T12:58:42.850Z,12.26
2022-11-05T12:59:53.705Z,12.25
2022-11-05T13:01:00.600Z,12.25
2022-11-05T13:02:15.607Z,12.26
2022-11-05T13:03:35.924Z,12.25
2022-11-05T13:04:52.544Z,12.25
2022-11-05T13:05:55.790Z,12.25
2022-11-05T13:07:00.167Z,12.23
2022-11-05T13:08:05.422Z,12.23
2022-11-05T13:09:09.736Z,12.24
2022-11-05T13:10:21.715Z,12.24
2022-11-05T13:11:46.393Z,12.25
2022-11-05T13:12:52.430Z,12.23
2022-11-05T13:13:54.209Z,12.24
2022-11-05T13:15:03.453Z,12.25
2022-11-05T13:16:09.390Z,12.29
2022-11-05T13:17:15.156Z,12.31
2022-11-05T13:18:18.624Z,12.32
2022-11-05T13:19:36.531Z,12.35
2022-11-05T13:20:39.050Z,12.36
2022-11-05T13:21:43.810Z,12.38
2022-11-05T13:22:46.484Z,12.40
2022-11-05T13:23:52.445Z,12.42
2022-11-05T13:24:58.526Z,12.45
2022-11-05T13:26:07.760Z,12.46
2022-11-05T13:27:12.602Z,12.47
2022-11-05T13:28:23.644Z,12.50
2022-11-05T13:29:38.218Z,12.51
2022-11-05T13:30:43.943Z,12.53
2022-11-05T13:31:51.084Z,12.54
2022-11-05T13:32:57.062Z,12.57
2022-11-05T13:34:01.436Z,12.58
2022-11-05T13:35:04.372Z,12.59
2022-11-05T13:36:36.362Z,12.58
2022-11-05T13:37:54.969Z,12.58
2022-11-05T13:39:09.316Z,12.60
2022-11-05T13:40:11.789Z,12.60
2022-11-05T13:41:22.266Z,12.60
2022-11-05T13:42:36.206Z,12.59
2022-11-05T13:43:40.599Z,12.59
2022-11-05T13:44:57.166Z,12.59
2022-11-05T13:46:16.861Z,12.60
2022-11-05T13:47:21.656Z,12.59
2022-11-05T13:48:41.423Z,12.59
2022-11-05T13:50:18.278Z,12.58
2022-11-05T13:51:41.056Z,12.60
2022-11-05T13:52:57.872Z,12.62
2022-11-05T13:54:21.127Z,12.61
2022-11-05T13:55:22.845Z,12.62
2022-11-05T13:56:33.461Z,12.62
2022-11-05T13:57:35.904Z,12.65
2022-11-05T13:58:40.245Z,12.65
2022-11-05T13:59:53.881Z,12.67
2022-11-05T14:01:16.325Z,12.68
2022-11-05T14:02:25.535Z,12.68
2022-11-05T14:03:27.436Z,12.67
2022-11-05T14:04:35.713Z,12.67
2022-11-05T14:05:41.484Z,12.67
2022-11-05T14:06:43.295Z,12.66
2022-11-05T14:07:48.181Z,12.65
2022-11-05T14:08:49.978Z,12.66
2022-11-05T14:09:58.473Z,12.66
2022-11-05T14:11:10.124Z,12.66
2022-11-05T14:12:22.851Z,12.65
2022-11-05T14:13:31.900Z,12.64
2022-11-05T14:14:39.060Z,12.63
2022-11-05T14:15:43.426Z,12.62
2022-11-05T14:16:49.590Z,12.55
2022-11-05T14:18:04.106Z,12.59
2022-11-05T14:19:20.681Z,12.58
2022-11-05T14:20:24.448Z,12.57